Time;durP1;ratioP1;P1;durP2;ratioP2;P2;SDS_P1;SDS_P2;PMS_P1;PMS_P2;Temp;Humidity;BMP_temperature;BMP_pressure;BME280_temperature;BME280_humidity;BME280_pressure;Samples;Min_cycle;Max_cycle;Signal;HPM_P1;HPM_P2
2022/08/11 00:01:48;;;;;;;3.95;3.13;;;15.00;99.90;;;;;;5036224;28;20225;-75
2022/08/11 00:04:17;;;;;;;6.00;3.30;;;15.10;99.90;;;;;;5050316;28;20198;-75
2022/08/11 00:06:46;;;;;;;4.93;3.45;;;15.20;99.90;;;;;;5052894;28;20676;-76
2022/08/11 00:09:17;;;;;;;5.15;3.22;;;15.30;99.90;;;;;;5052940;28;20553;-75
2022/08/11 00:11:48;;;;;;;10.25;4.90;;;15.30;99.90;;;;;;5052959;28;20206;-75
2022/08/11 00:14:19;;;;;;;12.02;5.85;;;15.50;99.90;;;;;;5052832;28;20206;-76
2022/08/11 00:16:54;;;;;;;11.43;5.03;;;15.60;99.90;;;;;;5052821;28;20211;-75
2022/08/11 00:19:24;;;;;;;14.52;6.07;;;15.70;99.90;;;;;;5050242;28;20199;-76
2022/08/11 00:21:51;;;;;;;14.37;7.07;;;15.70;99.90;;;;;;5032889;28;20294;-76
2022/08/11 00:24:19;;;;;;;5.13;3.60;;;15.80;99.90;;;;;;5044445;28;20199;-76
2022/08/11 00:26:53;;;;;;;3.30;3.00;;;15.30;99.90;;;;;;5052881;28;20238;-76
2022/08/11 00:29:22;;;;;;;5.30;3.92;;;15.00;99.90;;;;;;5052576;28;20215;-76
2022/08/11 00:31:51;;;;;;;4.93;3.63;;;14.60;99.90;;;;;;5052555;28;20207;-76
2022/08/11 00:34:25;;;;;;;4.37;3.33;;;14.60;99.90;;;;;;5050005;28;20675;-75
2022/08/11 00:36:55;;;;;;;3.85;3.35;;;14.70;99.90;;;;;;5052794;28;20210;-75
2022/08/11 00:39:24;;;;;;;6.17;3.23;;;14.80;99.90;;;;;;5052537;28;20195;-75
2022/08/11 00:42:34;;;;;;;5.33;3.50;;;14.70;99.90;;;;;;5052927;28;20285;-75
2022/08/11 00:45:07;;;;;;;4.43;3.30;;;14.70;99.90;;;;;;5052209;28;20210;-75
2022/08/11 00:47:54;;;;;;;4.30;3.37;;;14.70;99.90;;;;;;5052627;28;20210;-75
2022/08/11 00:50:29;;;;;;;8.63;3.97;;;14.80;99.90;;;;;;5038674;28;20203;-75
2022/08/11 00:53:31;;;;;;;6.20;3.80;;;14.90;99.90;;;;;;5037810;28;20207;-75
2022/08/11 00:56:38;;;;;;;4.50;3.40;;;15.00;99.90;;;;;;5016665;28;20209;-76
2022/08/11 00:59:53;;;;;;;4.77;3.30;;;15.00;99.90;;;;;;5052481;28;20195;-75
2022/08/11 01:02:38;;;;;;;7.23;4.20;;;14.50;99.90;;;;;;5007624;28;20197;-75
2022/08/11 01:05:49;;;;;;;4.90;3.73;;;14.50;99.90;;;;;;4994909;28;20208;-75
2022/08/11 01:08:55;;;;;;;4.23;3.80;;;14.50;99.90;;;;;;5051509;28;20226;-75
2022/08/11 01:12:04;;;;;;;6.17;3.83;;;14.70;99.90;;;;;;5051981;28;20285;-75
2022/08/11 01:14:52;;;;;;;5.40;3.70;;;14.70;99.90;;;;;;5035355;28;20208;-75
2022/08/11 01:17:56;;;;;;;3.77;3.37;;;14.70;99.90;;;;;;5039830;28;20206;-76
2022/08/11 01:21:01;;;;;;;5.07;3.70;;;14.60;99.90;;;;;;5034144;28;20214;-76
2022/08/11 01:24:18;;;;;;;5.97;3.63;;;14.50;99.90;;;;;;5022544;28;20199;-75
2022/08/11 01:27:16;;;;;;;4.93;3.50;;;14.20;99.90;;;;;;5051375;28;20640;-76
2022/08/11 01:30:35;;;;;;;5.83;3.93;;;14.30;99.90;;;;;;5054057;28;20242;-76
2022/08/11 01:33:35;;;;;;;5.13;3.43;;;14.30;99.90;;;;;;5046846;28;20682;-76
2022/08/11 01:36:33;;;;;;;5.27;3.90;;;14.20;99.90;;;;;;5043387;28;20209;-76
2022/08/11 01:39:24;;;;;;;6.03;3.33;;;14.40;99.90;;;;;;5054977;28;20191;-76
2022/08/11 01:45:21;;;;;;;6.23;3.47;;;14.90;99.90;;;;;;5052568;28;20692;-76
2022/08/11 01:48:00;;;;;;;5.90;3.50;;;14.80;99.90;;;;;;5055384;28;20213;-76
2022/08/11 01:50:52;;;;;;;3.77;3.40;;;15.00;99.90;;;;;;5055631;28;20202;-76
2022/08/11 01:53:30;;;;;;;7.43;4.30;;;14.90;99.90;;;;;;5055562;28;20191;-76
2022/08/11 01:56:10;;;;;;;7.80;5.17;;;14.70;99.90;;;;;;5054328;28;20290;-75
2022/08/11 01:58:44;;;;;;;6.20;4.37;;;14.90;99.90;;;;;;5048518;28;20286;-76
2022/08/11 02:01:28;;;;;;;5.60;4.93;;;14.70;99.90;;;;;;5055200;28;20246;-76
2022/08/11 02:04:00;;;;;;;4.10;3.50;;;14.70;99.90;;;;;;5054037;28;20199;-76
2022/08/11 02:06:55;;;;;;;6.13;4.00;;;14.70;99.90;;;;;;5052309;28;20662;-76
2022/08/11 02:09:40;;;;;;;6.20;4.30;;;14.70;99.90;;;;;;5054989;28;20725;-71
2022/08/11 02:12:15;;;;;;;6.20;4.00;;;14.70;99.90;;;;;;5036758;28;20294;-70
2022/08/11 02:14:49;;;;;;;8.90;4.93;;;14.60;99.90;;;;;;5053994;28;20289;-70
2022/08/11 02:17:20;;;;;;;9.07;5.30;;;14.80;99.90;;;;;;5053179;28;20210;-70
2022/08/11 02:25:46;;;;;;;6.77;4.00;;;14.70;99.90;;;;;;5054066;28;20206;-70
2022/08/11 02:28:22;;;;;;;7.70;3.73;;;14.60;99.90;;;;;;5053361;28;20268;-70
2022/08/11 02:33:43;;;;;;;4.97;3.43;;;14.50;99.90;;;;;;5052519;28;20205;-70
2022/08/11 02:36:18;;;;;;;5.63;3.47;;;14.50;99.90;;;;;;5048292;28;20585;-70
2022/08/11 02:38:53;;;;;;;5.13;3.40;;;14.50;99.90;;;;;;5053092;28;20234;-70
2022/08/11 02:44:34;;;;;;;6.13;3.90;;;14.40;99.90;;;;;;4961524;28;20212;-70
2022/08/11 02:47:09;;;;;;;6.83;4.13;;;14.20;99.90;;;;;;5026835;28;20202;-70
2022/08/11 02:49:53;;;;;;;5.83;3.80;;;14.20;99.90;;;;;;5051388;28;20246;-70
2022/08/11 02:52:31;;;;;;;6.40;4.30;;;14.20;99.90;;;;;;5053238;28;20195;-70
2022/08/11 02:55:14;;;;;;;5.70;4.00;;;14.20;99.90;;;;;;5053179;28;20202;-70
2022/08/11 02:57:47;;;;;;;8.23;4.27;;;14.20;99.90;;;;;;5054412;28;20217;-70
2022/08/11 03:00:17;;;;;;;7.10;4.17;;;14.10;99.90;;;;;;5054022;28;20209;-70
2022/08/11 03:02:59;;;;;;;8.33;4.47;;;14.10;99.90;;;;;;5054327;28;20203;-70
2022/08/11 03:05:45;;;;;;;4.73;3.97;;;14.10;99.90;;;;;;5048305;28;20771;-70
2022/08/11 03:08:22;;;;;;;6.33;4.30;;;14.10;99.90;;;;;;5045169;28;20684;-70
2022/08/11 03:16:46;;;;;;;7.40;4.67;;;14.10;99.90;;;;;;5052393;28;20205;-67
2022/08/11 03:19:21;;;;;;;6.13;4.50;;;14.10;99.90;;;;;;5050833;28;20195;-67
2022/08/11 03:21:56;;;;;;;6.17;3.97;;;14.10;99.90;;;;;;5034163;28;20728;-67
2022/08/11 03:24:31;;;;;;;8.27;5.10;;;14.00;99.90;;;;;;5032808;28;20211;-67
2022/08/11 03:27:09;;;;;;;6.80;4.40;;;14.20;99.90;;;;;;5034353;28;20210;-67
2022/08/11 03:29:44;;;;;;;5.10;4.53;;;14.00;99.90;;;;;;5033329;28;20301;-67
2022/08/11 03:32:26;;;;;;;7.00;4.40;;;14.00;99.90;;;;;;5033855;28;20294;-67
2022/08/11 03:34:55;;;;;;;10.17;6.20;;;14.00;99.90;;;;;;5039869;28;20207;-67
2022/08/11 03:37:51;;;;;;;7.33;5.10;;;14.00;99.90;;;;;;5053520;28;20203;-67
2022/08/11 03:43:44;;;;;;;5.50;4.10;;;13.90;99.90;;;;;;5053574;28;20194;-67
2022/08/11 03:46:20;;;;;;;5.73;3.97;;;13.80;99.90;;;;;;5052684;28;20720;-67
2022/08/11 03:48:56;;;;;;;6.73;4.53;;;13.80;99.90;;;;;;5052248;28;20938;-67
2022/08/11 03:51:29;;;;;;;5.37;4.00;;;13.90;99.90;;;;;;5052797;28;20195;-67
2022/08/11 03:54:09;;;;;;;6.07;4.73;;;13.80;99.90;;;;;;5033831;28;20216;-67
2022/08/11 03:57:07;;;;;;;6.37;3.93;;;13.70;99.90;;;;;;5043417;28;20195;-67
2022/08/11 04:00:20;;;;;;;9.50;4.97;;;13.80;99.90;;;;;;5035233;28;20203;-67
2022/08/11 04:03:27;;;;;;;6.47;4.50;;;13.90;99.90;;;;;;4972216;28;20213;-67
2022/08/11 04:06:36;;;;;;;6.87;4.27;;;14.00;99.90;;;;;;5031880;28;20328;-67
2022/08/11 04:09:31;;;;;;;7.80;3.97;;;14.10;99.90;;;;;;5032080;28;20233;-67
2022/08/11 04:12:18;;;;;;;8.73;4.23;;;14.20;99.90;;;;;;5002268;28;20203;-67
2022/08/11 04:18:27;;;;;;;5.63;4.07;;;14.10;99.90;;;;;;5033168;28;20207;-67
2022/08/11 04:21:19;;;;;;;13.23;8.07;;;14.20;99.90;;;;;;5032617;28;20247;-67
2022/08/11 04:24:04;;;;;;;8.23;5.63;;;14.40;99.90;;;;;;5026030;28;20290;-67
2022/08/11 04:27:06;;;;;;;9.00;4.63;;;14.60;99.90;;;;;;5032396;28;20212;-67
2022/08/11 04:29:50;;;;;;;11.67;4.17;;;14.80;99.90;;;;;;5030977;28;20223;-67
2022/08/11 04:32:36;;;;;;;7.33;4.53;;;14.70;99.90;;;;;;5032730;28;20298;-67
2022/08/11 04:35:23;;;;;;;6.30;3.70;;;14.60;99.90;;;;;;5031858;28;20537;-67
2022/08/11 04:38:14;;;;;;;5.63;4.27;;;14.50;99.90;;;;;;5033309;28;20183;-67
2022/08/11 04:40:57;;;;;;;7.87;5.00;;;14.40;99.90;;;;;;5031243;28;20207;-67
2022/08/11 04:44:02;;;;;;;9.33;4.63;;;14.40;99.90;;;;;;5031786;28;20611;-67
2022/08/11 04:46:44;;;;;;;6.83;4.73;;;14.40;99.90;;;;;;5032826;28;20199;-67
2022/08/11 05:01:42;;;;;;;8.43;5.47;;;14.50;99.90;;;;;;5052398;28;20201;-67
2022/08/11 05:08:00;;;;;;;6.27;4.97;;;15.00;99.90;;;;;;5034930;28;20210;-67
2022/08/11 05:10:48;;;;;;;9.10;5.07;;;15.10;99.90;;;;;;5025714;28;20265;-67
2022/08/11 05:36:00;;;;;;;6.22;3.95;;;15.60;99.90;;;;;;5032370;28;20724;-67
2022/08/11 05:57:56;;;;;;;9.13;4.70;;;16.20;99.90;;;;;;5055681;28;20226;-67
2022/08/11 06:00:25;;;;;;;10.20;5.05;;;16.40;99.90;;;;;;5055383;28;20207;-67
2022/08/11 06:02:54;;;;;;;10.13;5.28;;;16.40;99.90;;;;;;5055543;28;20558;-67
2022/08/11 06:05:22;;;;;;;9.82;4.90;;;16.40;99.90;;;;;;5055549;28;20202;-67
2022/08/11 06:07:53;;;;;;;9.30;4.80;;;16.60;99.90;;;;;;5055739;28;20598;-68
2022/08/11 06:10:32;;;;;;;9.57;5.15;;;17.00;99.90;;;;;;5055453;28;20225;-67
2022/08/11 06:13:00;;;;;;;10.20;5.82;;;17.10;99.90;;;;;;5055189;28;20214;-67
2022/08/11 06:15:32;;;;;;;9.50;5.43;;;17.20;99.90;;;;;;5055236;28;20203;-67
2022/08/11 06:18:01;;;;;;;10.00;5.15;;;17.30;99.90;;;;;;5054865;28;20619;-67
2022/08/11 06:20:35;;;;;;;10.15;4.78;;;17.50;99.90;;;;;;5055042;28;20211;-67
2022/08/11 06:23:05;;;;;;;7.93;4.72;;;17.70;99.90;;;;;;5054998;28;20649;-67
2022/08/11 06:25:34;;;;;;;9.60;5.32;;;17.90;99.90;;;;;;5055033;28;20229;-67
2022/08/11 06:28:03;;;;;;;13.82;5.10;;;18.20;99.90;;;;;;5051455;28;20207;-67
2022/08/11 06:30:39;;;;;;;12.13;5.18;;;18.00;99.90;;;;;;5045444;28;20223;-67
2022/08/11 06:33:09;;;;;;;13.65;5.45;;;18.00;99.90;;;;;;5034733;28;20207;-67
2022/08/11 06:35:47;;;;;;;14.68;5.63;;;18.10;99.90;;;;;;5034125;28;20552;-70
2022/08/11 06:38:23;;;;;;;25.67;7.18;;;18.30;99.90;;;;;;5034798;28;20242;-71
2022/08/11 06:43:49;;;;;;;22.50;6.65;;;18.30;99.90;;;;;;5034964;28;20203;-70
2022/08/11 06:46:28;;;;;;;26.88;6.55;;;18.30;99.90;;;;;;5034888;28;20217;-70
2022/08/11 06:48:55;;;;;;;54.47;9.13;;;18.60;99.90;;;;;;5034877;28;20229;-70
2022/08/11 06:51:22;;;;;;;36.50;6.72;;;19.10;99.90;;;;;;5034442;28;20303;-70
2022/08/11 06:53:52;;;;;;;24.27;6.32;;;19.10;99.90;;;;;;5034982;28;20207;-70
2022/08/11 07:02:03;;;;;;;25.13;5.43;;;19.60;98.30;;;;;;5034363;28;20237;-70
2022/08/11 07:04:35;;;;;;;18.63;4.75;;;19.60;97.60;;;;;;5033549;28;20227;-70
2022/08/11 07:16:03;;;;;;;7.50;4.00;;;20.40;70.90;;;;;;5034273;28;20250;-70
2022/08/11 07:29:49;;;;;;;6.40;3.60;;;20.70;58.80;;;;;;5033949;28;20289;-70
2022/08/11 07:32:24;;;;;;;8.43;3.85;;;20.80;55.80;;;;;;5033928;28;20203;-70
2022/08/11 07:34:58;;;;;;;8.32;3.78;;;20.90;64.70;;;;;;5034159;28;20295;-71
2022/08/11 07:37:29;;;;;;;6.25;3.83;;;21.00;59.80;;;;;;5036511;28;20221;-70
2022/08/11 07:39:58;;;;;;;5.40;3.78;;;21.00;58.30;;;;;;5053411;28;20282;-70
2022/08/11 07:42:29;;;;;;;7.85;3.88;;;21.10;58.40;;;;;;5053763;28;20209;-70
2022/08/11 07:53:17;;;;;;;6.65;3.25;;;21.30;48.30;;;;;;5053431;28;20189;-70
2022/08/11 07:55:48;;;;;;;8.80;3.85;;;21.30;47.90;;;;;;5053758;28;20202;-70
2022/08/11 08:17:50;;;;;;;11.25;4.15;;;22.00;40.60;;;;;;5033348;28;20206;-70
2022/08/11 08:20:19;;;;;;;11.18;4.45;;;22.20;37.60;;;;;;5033238;28;20200;-70
2022/08/11 08:22:55;;;;;;;12.60;4.18;;;22.20;39.50;;;;;;5033276;28;20274;-70
2022/08/11 08:25:24;;;;;;;9.05;4.88;;;22.20;34.00;;;;;;5033162;28;20207;-70
2022/08/11 08:27:51;;;;;;;9.45;4.68;;;22.40;35.20;;;;;;5033171;28;20203;-70
2022/08/11 08:33:04;;;;;;;8.63;5.30;;;22.70;35.90;;;;;;5033021;28;20565;-71
2022/08/11 08:35:32;;;;;;;7.10;4.22;;;22.80;35.80;;;;;;5033309;28;20271;-70
2022/08/11 08:38:01;;;;;;;16.27;5.20;;;23.00;34.50;;;;;;5033231;28;20214;-70
2022/08/11 08:40:28;;;;;;;9.98;4.30;;;22.90;31.70;;;;;;5032815;28;20196;-70
2022/08/11 08:42:58;;;;;;;10.80;5.07;;;23.10;26.20;;;;;;5032934;28;20229;-70
2022/08/11 08:45:26;;;;;;;11.65;4.38;;;23.10;30.60;;;;;;5032782;28;20214;-70
2022/08/11 08:47:58;;;;;;;8.38;4.40;;;23.30;28.30;;;;;;5032896;28;20208;-70
2022/08/11 08:51:32;;;;;;;12.48;4.30;;;23.30;28.10;;;;;;5032907;28;20582;-70
2022/08/11 08:53:21;;;;;;;8.50;4.35;;;23.20;27.70;;;;;;5032605;28;20207;-70
2022/08/11 08:55:49;;;;;;;6.57;4.25;;;23.30;32.00;;;;;;5032964;28;20211;-70
2022/08/11 08:58:19;;;;;;;7.25;4.15;;;23.60;28.70;;;;;;5032649;28;20270;-70
2022/08/11 09:00:50;;;;;;;10.38;4.85;;;23.60;31.70;;;;;;5032461;28;20208;-70
2022/08/11 09:03:18;;;;;;;7.13;3.90;;;23.70;27.40;;;;;;5032908;28;20257;-70
2022/08/11 09:05:46;;;;;;;4.90;3.05;;;23.80;27.30;;;;;;5032676;28;20211;-70
2022/08/11 09:08:17;;;;;;;6.45;3.30;;;24.40;23.00;;;;;;5032568;28;20218;-70
2022/08/11 09:10:46;;;;;;;4.32;3.03;;;24.70;21.90;;;;;;5032467;28;20226;-70
2022/08/11 09:13:15;;;;;;;4.57;3.17;;;25.00;21.60;;;;;;5032765;28;20203;-70
2022/08/11 09:15:42;;;;;;;6.63;3.33;;;25.20;23.40;;;;;;5032914;28;20203;-70
2022/08/11 09:18:10;;;;;;;4.82;3.47;;;25.60;21.50;;;;;;5032642;28;20218;-70
2022/08/11 09:20:39;;;;;;;6.63;3.20;;;26.00;21.40;;;;;;5032515;28;20240;-70
2022/08/11 09:29:00;;;;;;;6.32;3.40;;;26.60;15.20;;;;;;4994380;28;20251;-70
2022/08/11 09:31:32;;;;;;;5.75;3.30;;;26.40;15.20;;;;;;4994151;28;20695;-71
2022/08/11 09:33:59;;;;;;;3.63;3.13;;;26.90;9.30;;;;;;5014534;28;20215;-70
2022/08/11 09:42:06;;;;;;;6.13;3.30;;;27.30;5.80;;;;;;4997143;28;20246;-71
2022/08/11 09:44:48;;;;;;;7.60;3.70;;;27.40;6.30;;;;;;5035651;28;20207;-70
2022/08/11 09:47:21;;;;;;;4.68;3.25;;;27.40;5.50;;;;;;5035368;28;20250;-70
2022/08/11 09:49:51;;;;;;;9.65;3.28;;;27.60;9.60;;;;;;5034901;28;20277;-75
2022/08/11 09:52:19;;;;;;;6.85;3.22;;;27.80;7.40;;;;;;5039967;28;20257;-71
2022/08/11 09:54:49;;;;;;;4.82;2.97;;;28.00;7.40;;;;;;5054943;28;20668;-76
2022/08/11 10:00:08;;;;;;;3.58;2.90;;;28.40;4.30;;;;;;5054879;28;20329;-75
2022/08/11 10:02:40;;;;;;;3.25;2.90;;;28.40;3.70;;;;;;5055004;28;20207;-75
2022/08/11 10:07:54;;;;;;;8.90;3.30;;;28.10;7.50;;;;;;5035123;28;20206;-75
2022/08/11 10:10:23;;;;;;;3.92;2.90;;;28.00;7.70;;;;;;5034701;28;20297;-75
2022/08/11 10:12:56;;;;;;;6.18;3.20;;;28.40;5.70;;;;;;5034928;28;20199;-75
2022/08/11 10:15:37;;;;;;;3.15;2.53;;;28.40;7.50;;;;;;5035105;28;20572;-75
2022/08/11 10:20:55;;;;;;;3.95;2.67;;;29.30;4.00;;;;;;5034551;28;20273;-75
2022/08/11 10:28:54;;;;;;;5.47;2.90;;;28.80;1.00;;;;;;5034814;28;20207;-75
2022/08/11 10:34:08;;;;;;;5.45;2.92;;;29.30;1.00;;;;;;5034758;28;20218;-75
2022/08/11 10:36:42;;;;;;;3.83;2.35;;;29.40;1.00;;;;;;5034626;28;20294;-74
2022/08/11 10:39:10;;;;;;;2.88;2.30;;;29.40;1.00;;;;;;5034389;28;20202;-75
2022/08/11 10:44:23;;;;;;;3.88;2.80;;;29.40;1.00;;;;;;5034297;28;20202;-68
2022/08/11 10:49:33;;;;;;;4.68;2.80;;;29.50;1.00;;;;;;5025413;28;20202;-74
2022/08/11 11:00:17;;;;;;;4.82;2.72;;;29.50;1.00;;;;;;5033843;28;20273;-70
2022/08/11 11:02:46;;;;;;;2.47;2.38;;;30.00;1.00;;;;;;5034066;28;20730;-68
2022/08/11 11:05:17;;;;;;;3.25;2.70;;;29.30;1.00;;;;;;5043442;28;20195;-70
2022/08/11 11:07:52;;;;;;;6.65;3.00;;;29.50;1.00;;;;;;5053958;28;20673;-70
2022/08/11 11:10:20;;;;;;;5.18;3.05;;;29.80;1.00;;;;;;5053570;28;20222;-71
2022/08/11 11:18:27;;;;;;;2.72;2.53;;;30.10;1.00;;;;;;5053766;28;20214;-71
2022/08/11 11:20:58;;;;;;;4.68;2.75;;;29.70;1.00;;;;;;5037575;28;20294;-71
2022/08/11 11:23:32;;;;;;;4.88;2.70;;;29.90;1.00;;;;;;5033638;28;20229;-71
2022/08/11 11:26:31;;;;;;;3.10;2.80;;;30.50;1.00;;;;;;5033550;28;20673;-71
2022/08/11 11:29:34;;;;;;;4.78;2.88;;;30.20;1.00;;;;;;5029470;28;20208;-70
2022/08/11 11:32:20;;;;;;;2.97;2.67;;;29.60;1.00;;;;;;5029858;28;20227;-71
2022/08/11 11:35:04;;;;;;;3.67;3.35;;;30.00;1.00;;;;;;5032530;28;20214;-71
2022/08/11 11:37:34;;;;;;;3.85;2.30;;;29.90;1.00;;;;;;5033462;28;20303;-71
2022/08/11 11:40:02;;;;;;;3.28;2.97;;;30.40;1.00;;;;;;5033122;28;20215;-71
2022/08/11 11:42:30;;;;;;;3.53;3.03;;;30.90;1.00;;;;;;5033709;28;20298;-71
2022/08/11 11:44:58;;;;;;;5.18;3.00;;;31.50;1.00;;;;;;5033525;28;20637;-71
2022/08/11 11:47:27;;;;;;;3.42;3.13;;;31.40;1.00;;;;;;5033288;28;20204;-71
2022/08/11 11:49:55;;;;;;;4.03;2.60;;;30.20;1.00;;;;;;5032616;28;20207;-69
2022/08/11 11:52:23;;;;;;;4.65;2.55;;;30.00;1.00;;;;;;5033318;28;20290;-69
2022/08/11 11:54:54;;;;;;;3.72;2.92;;;30.20;1.00;;;;;;5033050;28;20203;-69
2022/08/11 12:02:56;;;;;;;3.22;2.92;;;29.80;1.00;;;;;;5033231;28;20332;-69
2022/08/11 12:05:24;;;;;;;4.50;2.80;;;30.40;1.00;;;;;;5032806;28;20242;-70
2022/08/11 12:08:14;;;;;;;3.25;2.70;;;30.10;1.00;;;;;;5033169;28;20209;-69
2022/08/11 12:10:45;;;;;;;3.40;3.20;;;30.10;1.00;;;;;;5032468;28;20223;-69
2022/08/11 12:16:02;;;;;;;4.50;2.70;;;30.20;1.00;;;;;;5032876;28;20226;-70
2022/08/11 12:18:32;;;;;;;7.57;3.28;;;30.40;1.00;;;;;;5033010;28;20600;-72
2022/08/11 12:21:00;;;;;;;5.00;2.92;;;30.50;1.00;;;;;;5032581;28;20573;-70
2022/08/11 12:29:00;;;;;;;5.18;2.90;;;31.90;1.00;;;;;;5052617;28;20336;-70
2022/08/11 12:31:29;;;;;;;12.48;3.13;;;31.10;1.00;;;;;;5052307;28;20284;-70
2022/08/11 12:34:02;;;;;;;2.83;2.50;;;30.70;1.00;;;;;;5052624;28;20292;-70
2022/08/11 12:36:33;;;;;;;3.95;2.60;;;30.90;1.00;;;;;;5048650;28;20203;-70
2022/08/11 12:39:01;;;;;;;3.40;2.70;;;32.00;1.00;;;;;;5032387;28;20204;-70
2022/08/11 12:47:04;;;;;;;5.40;3.20;;;30.30;1.00;;;;;;5051687;28;20194;-70
2022/08/11 12:52:34;;;;;;;4.18;2.80;;;30.00;1.00;;;;;;5032575;28;20449;-70
2022/08/11 12:55:03;;;;;;;3.53;2.83;;;29.90;1.00;;;;;;5032295;28;20302;-70
2022/08/11 13:05:54;;;;;;;2.97;2.70;;;30.20;1.00;;;;;;5046393;28;20202;-70
2022/08/11 13:08:23;;;;;;;3.67;2.63;;;30.30;1.00;;;;;;5036904;28;20211;-70
2022/08/11 13:13:39;;;;;;;4.63;2.55;;;30.20;1.00;;;;;;5036658;28;20321;-70
2022/08/11 13:16:06;;;;;;;3.10;2.80;;;30.50;1.00;;;;;;5054800;28;20563;-70
2022/08/11 13:18:34;;;;;;;3.88;2.90;;;30.20;1.00;;;;;;5056316;28;20241;-70
2022/08/11 13:21:03;;;;;;;6.35;3.15;;;30.20;1.00;;;;;;5039667;28;20204;-70
2022/08/11 13:23:31;;;;;;;3.15;2.85;;;30.30;1.00;;;;;;5036645;28;20659;-70
2022/08/11 13:25:58;;;;;;;3.30;3.00;;;30.70;1.00;;;;;;5053153;28;20205;-70
2022/08/11 13:28:25;;;;;;;5.45;3.13;;;30.30;1.00;;;;;;5052495;28;20286;-70
2022/08/11 13:31:12;;;;;;;4.00;2.92;;;30.00;1.00;;;;;;5055906;28;20222;-70
2022/08/11 13:33:42;;;;;;;4.18;2.75;;;30.10;1.00;;;;;;5055981;28;20718;-70
2022/08/11 13:36:12;;;;;;;4.70;2.88;;;30.50;1.00;;;;;;5038124;28;20214;-70
2022/08/11 13:38:42;;;;;;;4.28;2.83;;;30.50;1.00;;;;;;5053557;28;20644;-70
2022/08/11 13:43:52;;;;;;;6.40;2.92;;;30.40;1.00;;;;;;5038379;28;20261;-70
2022/08/11 13:46:21;;;;;;;5.93;2.83;;;30.20;1.00;;;;;;5035812;28;20207;-70
2022/08/11 13:48:49;;;;;;;3.67;2.72;;;30.20;1.00;;;;;;5055288;28;20195;-70
2022/08/11 13:51:31;;;;;;;3.15;2.70;;;30.40;1.00;;;;;;5054392;28;20605;-70
2022/08/11 13:53:59;;;;;;;3.20;2.90;;;30.60;1.00;;;;;;5048400;28;20191;-70
2022/08/11 13:56:28;;;;;;;3.60;3.03;;;30.50;1.00;;;;;;5054973;28;20211;-70
2022/08/11 13:58:56;;;;;;;4.82;2.80;;;30.50;1.00;;;;;;5056215;28;20195;-70
2022/08/11 14:01:26;;;;;;;3.38;2.35;;;30.40;1.00;;;;;;5055255;28;20286;-70
2022/08/11 14:03:54;;;;;;;4.82;2.95;;;30.50;1.00;;;;;;5055061;28;20568;-70
2022/08/11 14:06:22;;;;;;;6.50;2.90;;;30.80;1.00;;;;;;5040040;28;20206;-70
2022/08/11 14:08:58;;;;;;;5.53;3.03;;;30.70;1.00;;;;;;5038864;28;20646;-77
2022/08/11 14:14:18;;;;;;;2.72;2.53;;;30.70;1.00;;;;;;5044460;28;20684;-71
2022/08/11 14:16:46;;;;;;;3.55;3.08;;;31.00;1.00;;;;;;5047154;28;20203;-71
2022/08/11 14:19:17;;;;;;;10.90;3.67;;;31.30;1.00;;;;;;5047945;28;20202;-71
2022/08/11 14:24:32;;;;;;;3.13;2.65;;;30.60;1.00;;;;;;5054627;28;20206;-71
2022/08/11 14:27:00;;;;;;;4.88;2.90;;;30.60;1.00;;;;;;5055206;28;20543;-72
2022/08/11 14:29:28;;;;;;;4.40;2.90;;;30.40;1.00;;;;;;5054600;28;20203;-71
2022/08/11 14:31:57;;;;;;;3.85;3.00;;;30.30;1.00;;;;;;5051816;28;20223;-71
2022/08/11 14:34:28;;;;;;;2.92;2.60;;;30.20;1.00;;;;;;5038097;28;20203;-71
2022/08/11 14:36:59;;;;;;;3.40;2.90;;;30.30;1.00;;;;;;5034624;28;20203;-71
2022/08/11 14:39:27;;;;;;;4.63;2.90;;;30.10;1.00;;;;;;5034592;28;20216;-71
2022/08/11 14:47:30;;;;;;;3.22;2.60;;;30.30;1.00;;;;;;5034381;28;20333;-70
2022/08/11 14:49:59;;;;;;;4.00;2.67;;;29.90;1.00;;;;;;5034167;28;20662;-71
2022/08/11 14:52:28;;;;;;;4.10;2.78;;;29.80;1.00;;;;;;5034414;28;20694;-71
2022/08/11 14:57:41;;;;;;;3.42;2.58;;;29.80;1.00;;;;;;5040823;28;20669;-71
2022/08/11 15:00:14;;;;;;;7.60;3.00;;;29.90;1.00;;;;;;5053987;28;20211;-70
2022/08/11 15:05:27;;;;;;;2.85;2.60;;;29.80;1.00;;;;;;5042237;28;20206;-70
2022/08/11 15:07:58;;;;;;;3.28;2.92;;;29.70;1.00;;;;;;5041610;28;20206;-70
2022/08/11 15:10:25;;;;;;;4.68;2.67;;;30.00;1.00;;;;;;5053720;28;20213;-70
2022/08/11 15:12:53;;;;;;;5.30;2.85;;;29.80;1.00;;;;;;5052514;28;20215;-70
2022/08/11 15:18:10;;;;;;;2.95;2.55;;;29.90;1.00;;;;;;5054180;28;20202;-70
2022/08/11 15:26:11;;;;;;;3.65;2.50;;;29.80;1.00;;;;;;5038581;28;20217;-70
2022/08/11 15:48:17;;;;;;;3.28;2.47;;;30.40;1.00;;;;;;5049188;28;20203;-70
2022/08/11 15:50:50;;;;;;;2.83;2.53;;;30.00;1.00;;;;;;5046556;28;20211;-70
2022/08/11 15:53:25;;;;;;;5.47;2.55;;;29.80;1.00;;;;;;5047602;28;20685;-70
2022/08/11 15:55:54;;;;;;;4.35;2.40;;;29.80;1.00;;;;;;5040494;28;20572;-71
2022/08/11 16:04:13;;;;;;;3.05;2.75;;;29.50;1.00;;;;;;5044384;28;20210;-70
2022/08/11 16:06:50;;;;;;;3.38;2.55;;;29.40;1.00;;;;;;5047608;28;20203;-71
2022/08/11 16:09:23;;;;;;;3.40;2.20;;;29.40;1.00;;;;;;5051478;28;20202;-71
2022/08/11 16:11:54;;;;;;;2.42;2.25;;;29.30;1.00;;;;;;5041803;28;20223;-70
2022/08/11 16:17:11;;;;;;;3.55;2.40;;;29.30;1.00;;;;;;5043276;28;20306;-71
2022/08/11 16:19:42;;;;;;;3.63;2.30;;;29.30;1.00;;;;;;5047108;28;20200;-71
2022/08/11 16:22:12;;;;;;;3.47;2.33;;;29.30;1.00;;;;;;5045212;28;20198;-70
2022/08/11 16:24:44;;;;;;;2.50;2.30;;;29.20;1.00;;;;;;5046737;28;20210;-70
2022/08/11 16:27:14;;;;;;;5.05;2.13;;;29.30;1.00;;;;;;5044358;28;20830;-70
2022/08/11 16:29:47;;;;;;;4.82;2.83;;;29.20;1.00;;;;;;5044434;28;20210;-70
2022/08/11 16:32:19;;;;;;;4.85;2.40;;;29.20;1.00;;;;;;5042034;28;20226;-70
2022/08/11 16:40:21;;;;;;;2.63;2.42;;;29.20;1.00;;;;;;5039747;28;20248;-71
2022/08/11 16:48:23;;;;;;;3.28;2.35;;;29.20;1.00;;;;;;5044049;28;20210;-70
2022/08/11 16:50:51;;;;;;;3.67;2.80;;;29.10;1.00;;;;;;5043508;28;20207;-70
2022/08/11 16:53:18;;;;;;;5.82;2.92;;;29.10;1.00;;;;;;5041619;28;20220;-70
2022/08/11 16:55:47;;;;;;;6.45;2.60;;;29.00;1.00;;;;;;5042820;28;20206;-70
2022/08/11 17:01:01;;;;;;;3.47;2.70;;;28.80;1.00;;;;;;5041795;28;20221;-70
2022/08/11 17:14:42;;;;;;;4.95;2.53;;;28.60;1.00;;;;;;5027764;28;20747;-71
2022/08/11 17:17:15;;;;;;;4.53;2.67;;;28.50;1.00;;;;;;5039605;28;20196;-70
2022/08/11 17:19:48;;;;;;;2.80;2.22;;;28.60;1.00;;;;;;5040859;28;20200;-70
2022/08/11 17:25:03;;;;;;;3.85;2.63;;;28.50;1.00;;;;;;5039206;28;20683;-70
2022/08/11 17:27:31;;;;;;;2.70;2.40;;;28.50;1.00;;;;;;5044990;28;20199;-70
2022/08/11 17:30:02;;;;;;;2.42;2.20;;;28.40;1.00;;;;;;5047814;28;20204;-70
2022/08/11 17:35:29;;;;;;;3.90;2.45;;;28.40;1.00;;;;;;5045228;28;20665;-70
2022/08/11 17:37:59;;;;;;;3.45;2.45;;;28.40;1.00;;;;;;5046868;28;20199;-70
2022/08/11 17:40:28;;;;;;;3.60;2.50;;;28.20;1.00;;;;;;5046084;28;20646;-70
2022/08/11 17:48:31;;;;;;;4.72;2.40;;;28.00;1.00;;;;;;5048740;28;20819;-70
2022/08/11 17:51:00;;;;;;;2.75;2.35;;;27.90;1.00;;;;;;5044273;28;20226;-70
2022/08/11 18:01:47;;;;;;;4.82;2.65;;;27.40;1.00;;;;;;5054648;28;20711;-70
2022/08/11 18:04:14;;;;;;;2.72;2.53;;;27.30;1.00;;;;;;5054960;28;20679;-70
2022/08/11 18:06:43;;;;;;;3.53;2.50;;;27.30;1.00;;;;;;5055041;28;20253;-70
